createdAt,value
2023-09-09T00:01:57.321Z,100604.70
2023-09-09T00:06:13.000Z,100601.93
2023-09-09T00:10:15.115Z,100603.76
2023-09-09T00:14:17.080Z,100605.38
2023-09-09T00:18:19.460Z,100601.54
2023-09-09T00:22:21.636Z,100600.45
2023-09-09T00:26:23.604Z,100596.60
2023-09-09T00:30:26.192Z,100596.92
2023-09-09T00:34:28.222Z,100599.88
2023-09-09T00:38:30.361Z,100594.91
2023-09-09T00:42:32.485Z,100595.59
2023-09-09T00:46:34.524Z,100590.77
2023-09-09T00:50:36.998Z,100593.66
2023-09-09T00:54:39.529Z,100597.21
2023-09-09T00:58:41.715Z,100591.84
2023-09-09T01:02:44.012Z,100589.91
2023-09-09T01:06:46.657Z,100592.83
2023-09-09T01:10:48.756Z,100595.19
2023-09-09T01:14:50.783Z,100597.98
2023-09-09T01:18:54.451Z,100598.42
2023-09-09T01:22:56.651Z,100600.86
2023-09-09T01:26:59.092Z,100602.11
2023-09-09T01:31:01.337Z,100601.46
2023-09-09T01:35:05.402Z,100605.04
2023-09-09T01:39:08.482Z,100603.09
2023-09-09T01:43:10.973Z,100599.81
2023-09-09T01:47:14.518Z,100593.84
2023-09-09T01:51:17.720Z,100593.36
2023-09-09T01:55:19.798Z,100588.66
2023-09-09T01:59:21.897Z,100594.29
2023-09-09T02:03:26.133Z,100596.60
2023-09-09T02:07:28.324Z,100595.73
2023-09-09T02:11:30.290Z,100594.64
2023-09-09T02:15:32.317Z,100596.70
2023-09-09T02:19:34.410Z,100600.04
2023-09-09T02:23:41.085Z,100601.98
2023-09-09T02:27:43.271Z,100602.87
2023-09-09T02:31:45.271Z,100603.14
2023-09-09T02:35:48.643Z,100602.73
2023-09-09T02:39:52.618Z,100602.33
2023-09-09T02:43:54.886Z,100596.61
2023-09-09T02:47:57.334Z,100598.27
2023-09-09T02:52:00.081Z,100596.51
2023-09-09T02:56:02.147Z,100596.27
2023-09-09T03:00:06.715Z,100596.83
2023-09-09T03:04:08.751Z,100597.09
2023-09-09T03:08:11.273Z,100593.98
2023-09-09T03:12:13.734Z,100597.20
2023-09-09T03:16:17.241Z,100597.48
2023-09-09T03:20:19.977Z,100602.83
2023-09-09T03:24:22.132Z,100603.02
2023-09-09T03:28:24.460Z,100606.65
2023-09-09T03:32:26.896Z,100607.02
2023-09-09T03:36:28.970Z,100605.42
2023-09-09T03:40:31.047Z,100599.22
2023-09-09T03:44:33.362Z,100595.80
2023-09-09T03:48:35.791Z,100591.55
2023-09-09T03:52:37.941Z,100594.88
2023-09-09T03:56:40.160Z,100589.98
2023-09-09T04:00:42.650Z,100596.86
2023-09-09T04:04:45.825Z,100598.72
2023-09-09T04:08:48.119Z,100604.44
2023-09-09T04:12:50.664Z,100604.73
2023-09-09T04:16:53.768Z,100604.32
2023-09-09T04:20:56.217Z,100607.66
2023-09-09T04:24:58.592Z,100608.97
2023-09-09T04:29:00.867Z,100612.11
2023-09-09T04:33:03.303Z,100611.54
2023-09-09T04:37:06.170Z,100612.39
2023-09-09T04:41:09.315Z,100610.89
2023-09-09T04:45:11.315Z,100609.34
2023-09-09T04:49:16.447Z,100609.36
2023-09-09T04:53:23.952Z,100612.67
2023-09-09T04:57:42.704Z,100614.55
2023-09-09T05:01:45.443Z,100618.48
2023-09-09T05:05:47.684Z,100619.58
2023-09-09T05:09:49.962Z,100619.32
2023-09-09T05:13:53.257Z,100623.05
2023-09-09T05:17:55.402Z,100622.83
2023-09-09T05:21:58.209Z,100622.73
2023-09-09T05:26:00.374Z,100624.84
2023-09-09T05:30:03.304Z,100624.31
2023-09-09T05:34:05.629Z,100625.27
2023-09-09T05:38:07.983Z,100622.07
2023-09-09T05:42:11.077Z,100617.36
2023-09-09T05:46:14.763Z,100621.58
2023-09-09T05:50:17.169Z,100618.77
2023-09-09T05:54:19.276Z,100615.60
2023-09-09T05:58:21.442Z,100614.89
2023-09-09T06:02:23.602Z,100619.33
2023-09-09T06:06:30.059Z,100625.80
2023-09-09T06:10:32.518Z,100629.46
2023-09-09T06:14:34.601Z,100625.09
2023-09-09T06:18:36.758Z,100624.71
2023-09-09T06:22:39.356Z,100633.66
2023-09-09T06:26:41.624Z,100639.14
2023-09-09T06:30:44.403Z,100635.45
2023-09-09T06:34:46.515Z,100646.04
2023-09-09T06:38:49.256Z,100647.57
2023-09-09T06:42:51.650Z,100651.90
2023-09-09T06:46:53.664Z,100656.11
2023-09-09T06:50:56.044Z,100657.07
2023-09-09T06:54:58.119Z,100658.27
2023-09-09T06:59:00.128Z,100660.66
2023-09-09T07:03:02.316Z,100660.77
2023-09-09T07:07:12.124Z,100661.59
2023-09-09T07:11:15.089Z,100661.54
2023-09-09T07:15:17.300Z,100658.70
2023-09-09T07:19:19.269Z,100654.96
2023-09-09T07:23:21.214Z,100647.70
2023-09-09T07:27:23.178Z,100654.36
2023-09-09T07:31:26.274Z,100659.29
2023-09-09T07:35:28.241Z,100656.52
2023-09-09T07:39:30.938Z,100653.97
2023-09-09T07:43:33.017Z,100659.52
2023-09-09T07:47:35.119Z,100656.33
2023-09-09T07:51:37.196Z,100648.74
2023-09-09T07:55:39.229Z,100646.11
2023-09-09T07:59:41.345Z,100644.61
2023-09-09T08:03:43.561Z,100646.52
2023-09-09T08:07:45.862Z,100645.08
2023-09-09T08:11:49.009Z,100646.06
2023-09-09T08:15:52.116Z,100641.27
2023-09-09T08:19:55.214Z,100638.13
2023-09-09T08:24:01.311Z,100638.08
2023-09-09T08:28:04.505Z,100637.27
2023-09-09T08:32:07.260Z,100643.55
2023-09-09T08:36:09.648Z,100642.29
2023-09-09T08:40:12.523Z,100646.02
2023-09-09T08:45:00.731Z,100650.68
2023-09-09T08:49:06.107Z,100648.02
2023-09-09T08:53:13.563Z,100643.55
2023-09-09T08:57:17.113Z,100646.52
2023-09-09T09:01:23.167Z,100647.06
2023-09-09T09:05:25.850Z,100644.43
2023-09-09T09:09:30.501Z,100645.77
2023-09-09T09:13:33.997Z,100646.45
2023-09-09T09:17:40.224Z,100645.48
2023-09-09T09:21:44.090Z,100641.88
2023-09-09T09:25:52.193Z,100641.76
2023-09-09T09:29:54.243Z,100639.70
2023-09-09T09:34:00.397Z,100632.21
2023-09-09T09:38:08.768Z,100632.93
2023-09-09T09:42:17.538Z,100633.06
2023-09-09T09:46:22.297Z,100633.06
2023-09-09T09:50:29.510Z,100630.98
2023-09-09T09:54:34.267Z,100635.02
2023-09-09T09:58:37.799Z,100639.65
2023-09-09T10:02:44.356Z,100632.95
2023-09-09T10:06:51.943Z,100632.42
2023-09-09T10:11:06.776Z,100631.89
2023-09-09T10:15:12.987Z,100631.29
2023-09-09T10:19:18.867Z,100634.10
2023-09-09T10:23:23.212Z,100637.53
2023-09-09T10:27:28.282Z,100636.23
2023-09-09T10:31:35.540Z,100639.97
2023-09-09T10:35:45.597Z,100630.96
2023-09-09T10:39:51.514Z,100631.64
2023-09-09T10:43:54.671Z,100631.02
2023-09-09T10:48:13.241Z,100627.78
2023-09-09T10:52:33.230Z,100625.48
2023-09-09T10:56:45.884Z,100628.64
2023-09-09T11:00:50.122Z,100626.83
2023-09-09T11:05:19.273Z,100625.71
2023-09-09T11:09:28.938Z,100625.16
2023-09-09T11:13:55.394Z,100620.05
2023-09-09T11:17:59.843Z,100619.15
2023-09-09T11:22:05.423Z,100616.67
2023-09-09T11:26:13.940Z,100620.53
2023-09-09T11:30:16.596Z,100619.88
2023-09-09T11:34:35.918Z,100621.52
2023-09-09T11:38:41.141Z,100622.14
2023-09-09T11:42:52.811Z,100618.17
2023-09-09T11:46:54.876Z,100617.11
2023-09-09T11:51:15.439Z,100608.58
2023-09-09T11:55:18.432Z,100604.25
2023-09-09T11:59:22.200Z,100604.06
2023-09-09T12:03:24.307Z,100601.11
2023-09-09T12:07:30.316Z,100600.02
2023-09-09T12:11:35.446Z,100602.93
2023-09-09T12:15:45.627Z,100602.17
2023-09-09T12:19:58.564Z,100600.61
2023-09-09T12:24:01.580Z,100599.08
2023-09-09T12:28:16.005Z,100598.63
2023-09-09T12:32:19.318Z,100597.02
2023-09-09T12:36:22.261Z,100589.33
2023-09-09T12:40:26.237Z,100583.67
2023-09-09T12:44:32.244Z,100586.35
2023-09-09T12:48:53.426Z,100584.73
2023-09-09T12:52:59.346Z,100585.52
2023-09-09T12:57:01.388Z,100583.63
2023-09-09T13:01:03.461Z,100583.06
2023-09-09T13:05:05.880Z,100579.70
2023-09-09T13:09:07.873Z,100577.17
2023-09-09T13:13:10.476Z,100567.17
2023-09-09T13:17:12.678Z,100570.07
2023-09-09T13:21:14.908Z,100569.61
2023-09-09T13:25:17.083Z,100569.73
2023-09-09T13:29:19.157Z,100568.43
2023-09-09T13:33:21.851Z,100567.07
2023-09-09T13:37:23.918Z,100561.48
2023-09-09T13:41:29.238Z,100563.73
2023-09-09T13:45:32.016Z,100565.00
2023-09-09T13:49:37.154Z,100567.04
2023-09-09T13:53:39.509Z,100563.05
2023-09-09T13:57:42.031Z,100562.48
2023-09-09T14:01:44.028Z,100560.61
2023-09-09T14:05:46.169Z,100557.27
2023-09-09T14:09:48.556Z,100563.39
2023-09-09T14:13:50.690Z,100565.92
2023-09-09T14:17:52.810Z,100563.82
2023-09-09T14:21:55.138Z,100561.05
2023-09-09T14:25:57.180Z,100558.77
2023-09-09T14:29:59.261Z,100558.11
2023-09-09T14:34:01.503Z,100554.53
2023-09-09T14:38:03.759Z,100547.15
2023-09-09T14:42:06.130Z,100546.80
2023-09-09T14:46:08.341Z,100542.59
2023-09-09T14:50:11.358Z,100540.02
2023-09-09T14:54:13.609Z,100542.77
2023-09-09T14:58:15.744Z,100539.82
2023-09-09T15:02:18.371Z,100536.09
2023-09-09T15:06:22.224Z,100538.84
2023-09-09T15:10:24.295Z,100536.23
2023-09-09T15:14:26.403Z,100533.33
2023-09-09T15:18:28.782Z,100535.64
2023-09-09T15:22:30.896Z,100531.87
2023-09-09T15:26:33.258Z,100524.73
2023-09-09T15:30:35.424Z,100523.34
2023-09-09T15:34:37.459Z,100523.29
2023-09-09T15:38:41.794Z,100526.73
2023-09-09T15:42:44.141Z,100530.63
2023-09-09T15:46:46.540Z,100532.44
2023-09-09T15:50:48.732Z,100536.46
2023-09-09T15:54:50.902Z,100535.23
2023-09-09T15:58:54.355Z,100531.41
2023-09-09T16:02:56.515Z,100536.20
2023-09-09T16:06:58.736Z,100530.91
2023-09-09T16:11:02.173Z,100530.34
2023-09-09T16:15:04.898Z,100536.57
2023-09-09T16:19:07.939Z,100535.60
2023-09-09T16:23:10.653Z,100538.05
2023-09-09T16:27:13.968Z,100534.68
2023-09-09T16:31:16.100Z,100541.30
2023-09-09T16:35:18.180Z,100533.06
2023-09-09T16:39:20.379Z,100529.21
2023-09-09T16:43:22.637Z,100532.88
2023-09-09T16:47:24.742Z,100535.29
2023-09-09T16:51:26.744Z,100533.10
2023-09-09T16:55:28.844Z,100539.13
2023-09-09T16:59:41.160Z,100541.78
2023-09-09T17:03:44.065Z,100546.71
2023-09-09T17:07:46.205Z,100546.30
2023-09-09T17:11:48.266Z,100549.02
2023-09-09T17:15:50.627Z,100544.73
2023-09-09T17:19:53.579Z,100547.52
2023-09-09T17:23:56.394Z,100551.08
2023-09-09T17:27:59.149Z,100555.52
2023-09-09T17:32:04.044Z,100558.80
2023-09-09T17:36:06.112Z,100567.54
2023-09-09T17:40:09.362Z,100570.13
2023-09-09T17:44:12.356Z,100569.45
2023-09-09T17:48:14.613Z,100573.82
2023-09-09T17:52:17.259Z,100573.91
2023-09-09T17:56:22.941Z,100574.68
2023-09-09T18:00:25.426Z,100574.75
2023-09-09T18:04:27.637Z,100579.41
2023-09-09T18:08:30.034Z,100583.16
2023-09-09T18:12:32.158Z,100587.52
2023-09-09T18:16:34.568Z,100581.39
2023-09-09T18:20:36.758Z,100583.05
2023-09-09T18:24:38.765Z,100582.04
2023-09-09T18:28:41.094Z,100581.95
2023-09-09T18:32:44.735Z,100581.92
2023-09-09T18:36:46.929Z,100585.85
2023-09-09T18:40:51.485Z,100592.07
2023-09-09T18:44:54.033Z,100594.95
2023-09-09T18:48:56.585Z,100594.34
2023-09-09T18:52:58.714Z,100595.23
2023-09-09T18:57:00.735Z,100600.06
2023-09-09T19:01:03.166Z,100602.45
2023-09-09T19:05:08.995Z,100599.92
2023-09-09T19:09:15.908Z,100603.11
2023-09-09T19:13:18.300Z,100602.71
2023-09-09T19:17:22.342Z,100602.73
2023-09-09T19:21:25.638Z,100599.23
2023-09-09T19:25:27.822Z,100601.11
2023-09-09T19:29:30.258Z,100598.61
2023-09-09T19:33:32.825Z,100592.88
2023-09-09T19:37:34.970Z,100585.85
2023-09-09T19:41:38.336Z,100600.04
2023-09-09T19:45:41.635Z,100606.84
2023-09-09T19:49:43.823Z,100601.72
2023-09-09T19:53:45.920Z,100597.48
2023-09-09T19:57:48.111Z,100593.99
2023-09-09T20:01:50.325Z,100599.93
2023-09-09T20:05:53.452Z,100598.73
2023-09-09T20:10:09.951Z,100597.94
2023-09-09T20:14:13.804Z,100599.41
2023-09-09T20:18:16.065Z,100595.54
2023-09-09T20:22:20.979Z,100589.96
2023-09-09T20:26:23.184Z,100592.90
2023-09-09T20:30:26.327Z,100595.04
2023-09-09T20:34:28.618Z,100597.41
2023-09-09T20:38:31.425Z,100596.23
2023-09-09T20:42:35.848Z,100597.60
2023-09-09T20:46:40.140Z,100601.50
2023-09-09T20:50:42.212Z,100596.95
2023-09-09T20:54:45.104Z,100603.01
2023-09-09T20:58:47.706Z,100604.97
2023-09-09T21:02:53.557Z,100603.42
2023-09-09T21:06:55.842Z,100604.19
2023-09-09T21:10:58.739Z,100600.09
2023-09-09T21:15:00.860Z,100603.30
2023-09-09T21:19:03.167Z,100602.91
2023-09-09T21:23:05.549Z,100603.15
2023-09-09T21:27:08.178Z,100603.36
2023-09-09T21:31:10.198Z,100600.27
2023-09-09T21:35:17.279Z,100603.81
2023-09-09T21:39:19.288Z,100605.84
2023-09-09T21:43:21.270Z,100604.38
2023-09-09T21:47:23.775Z,100607.34
2023-09-09T21:51:26.044Z,100609.92
2023-09-09T21:55:29.081Z,100605.42
2023-09-09T21:59:31.121Z,100598.35
2023-09-09T22:03:33.339Z,100594.85
2023-09-09T22:07:35.449Z,100593.62
2023-09-09T22:11:37.528Z,100592.27
2023-09-09T22:15:41.499Z,100588.92
2023-09-09T22:19:43.883Z,100588.29
2023-09-09T22:23:46.148Z,100588.47
2023-09-09T22:27:48.560Z,100588.44
2023-09-09T22:31:50.863Z,100586.69
2023-09-09T22:35:53.043Z,100585.68
2023-09-09T22:39:55.066Z,100588.33
2023-09-09T22:43:57.199Z,100590.81
2023-09-09T22:47:59.238Z,100594.39
2023-09-09T22:52:02.417Z,100596.20
2023-09-09T22:56:04.641Z,100597.27
2023-09-09T23:00:07.407Z,100596.61
2023-09-09T23:04:10.078Z,100595.31
2023-09-09T23:08:12.558Z,100591.00
2023-09-09T23:12:14.604Z,100592.74
2023-09-09T23:16:17.187Z,100596.36
2023-09-09T23:20:20.465Z,100596.32
2023-09-09T23:24:22.828Z,100594.45
2023-09-09T23:28:26.520Z,100591.41
2023-09-09T23:32:28.609Z,100589.71
2023-09-09T23:36:31.395Z,100587.33
2023-09-09T23:40:33.486Z,100585.59
2023-09-09T23:44:35.582Z,100581.83
2023-09-09T23:48:38.001Z,100582.08
2023-09-09T23:52:40.919Z,100583.88
2023-09-09T23:56:42.998Z,100582.19
